createdAt,value
2018-02-25T00:01:57.560Z,12.80
2018-02-25T00:04:26.635Z,22.48
2018-02-25T00:06:55.662Z,20.85
2018-02-25T00:09:24.509Z,12.63
2018-02-25T00:11:53.308Z,9.05
2018-02-25T00:14:22.204Z,8.68
2018-02-25T00:16:51.266Z,8.02
2018-02-25T00:19:20.164Z,6.95
2018-02-25T00:21:49.261Z,8.23
2018-02-25T00:24:18.111Z,3.83
2018-02-25T00:26:47.726Z,2.65
2018-02-25T00:29:16.605Z,2.00
2018-02-25T00:31:45.545Z,2.28
2018-02-25T00:34:14.337Z,1.50
2018-02-25T00:36:43.393Z,1.50
2018-02-25T00:39:12.999Z,3.05
2018-02-25T00:41:42.029Z,4.87
2018-02-25T00:44:10.869Z,1.65
2018-02-25T00:46:39.776Z,1.15
2018-02-25T00:49:08.713Z,1.33
2018-02-25T00:51:37.488Z,1.33
2018-02-25T00:54:06.465Z,1.20
2018-02-25T00:56:35.364Z,2.08
2018-02-25T00:59:04.954Z,0.90
2018-02-25T01:01:33.857Z,1.10
2018-02-25T01:04:03.974Z,1.20
2018-02-25T01:06:32.833Z,1.10
2018-02-25T01:09:03.571Z,2.33
2018-02-25T01:11:32.549Z,2.75
2018-02-25T01:14:01.911Z,1.30
2018-02-25T01:16:30.729Z,3.40
2018-02-25T01:18:59.612Z,1.67
2018-02-25T01:21:29.371Z,3.72
2018-02-25T01:23:58.216Z,1.30
2018-02-25T01:26:27.097Z,1.30
2018-02-25T01:28:56.772Z,1.70
2018-02-25T01:31:25.896Z,2.40
2018-02-25T01:33:54.750Z,2.20
2018-02-25T01:36:24.046Z,2.62
2018-02-25T01:38:52.911Z,3.50
2018-02-25T01:41:22.211Z,4.07
2018-02-25T01:43:51.343Z,1.40
2018-02-25T01:46:21.000Z,1.20
2018-02-25T01:48:49.828Z,1.30
2018-02-25T01:51:18.707Z,1.27
2018-02-25T01:53:48.493Z,1.20
2018-02-25T01:56:18.142Z,2.25
2018-02-25T01:58:48.207Z,1.10
2018-02-25T02:01:17.052Z,1.10
2018-02-25T02:03:46.011Z,1.70
2018-02-25T02:06:14.869Z,1.30
2018-02-25T02:08:43.711Z,1.30
2018-02-25T02:11:12.524Z,1.33
2018-02-25T02:13:41.487Z,1.73
2018-02-25T02:16:10.245Z,1.77
2018-02-25T02:18:39.156Z,1.98
2018-02-25T02:21:07.916Z,1.77
2018-02-25T02:23:37.605Z,4.25
2018-02-25T02:26:06.513Z,4.82
2018-02-25T02:28:35.376Z,6.35
2018-02-25T02:31:04.407Z,6.40
2018-02-25T02:33:33.562Z,4.20
2018-02-25T02:36:02.380Z,3.67
2018-02-25T02:38:31.275Z,3.00
2018-02-25T02:41:00.419Z,1.50
2018-02-25T02:43:29.408Z,1.75
2018-02-25T02:45:58.170Z,1.50
2018-02-25T02:48:28.174Z,2.20
2018-02-25T02:50:57.233Z,3.10
2018-02-25T02:53:26.337Z,4.20
2018-02-25T02:55:55.402Z,4.65
2018-02-25T02:58:24.394Z,3.72
2018-02-25T03:00:53.208Z,5.05
2018-02-25T03:03:22.774Z,5.12
2018-02-25T03:05:52.381Z,5.25
2018-02-25T03:08:21.145Z,5.85
2018-02-25T03:10:50.233Z,7.35
2018-02-25T03:13:19.086Z,8.10
2018-02-25T03:15:47.998Z,9.23
2018-02-25T03:18:16.817Z,11.50
2018-02-25T03:20:45.677Z,11.77
2018-02-25T03:23:14.545Z,13.93
2018-02-25T03:25:44.363Z,12.20
2018-02-25T03:28:13.921Z,9.48
2018-02-25T03:30:42.771Z,6.37
2018-02-25T03:33:11.527Z,4.93
2018-02-25T03:35:41.359Z,3.15
2018-02-25T03:38:11.023Z,2.10
2018-02-25T03:40:40.249Z,2.05
2018-02-25T03:43:09.049Z,1.75
2018-02-25T03:45:37.949Z,1.90
2018-02-25T03:48:06.968Z,3.17
2018-02-25T03:50:35.855Z,2.00
2018-02-25T03:53:04.878Z,1.62
2018-02-25T03:55:34.542Z,2.00
2018-02-25T03:58:03.362Z,1.80
2018-02-25T04:00:32.165Z,2.03
2018-02-25T04:03:01.825Z,1.70
2018-02-25T04:05:30.860Z,1.70
2018-02-25T04:08:00.014Z,2.25
2018-02-25T04:10:29.541Z,2.12
2018-02-25T04:12:58.421Z,2.00
2018-02-25T04:15:27.531Z,1.95
2018-02-25T04:17:57.238Z,1.83
2018-02-25T04:20:26.138Z,2.10
2018-02-25T04:22:55.098Z,2.15
2018-02-25T04:25:24.625Z,3.92
2018-02-25T04:27:53.450Z,2.65
2018-02-25T04:30:22.220Z,1.87
2018-02-25T04:32:51.110Z,43.53
2018-02-25T04:35:20.185Z,57.40
2018-02-25T04:37:48.998Z,17.80
2018-02-25T04:40:18.736Z,14.18
2018-02-25T04:42:47.629Z,13.07
2018-02-25T04:45:16.777Z,31.60
2018-02-25T04:47:45.624Z,8.30
2018-02-25T04:50:14.710Z,16.02
2018-02-25T04:52:43.548Z,2.50
2018-02-25T04:55:13.225Z,1.83
2018-02-25T04:57:43.250Z,1.90
2018-02-25T05:00:12.390Z,2.78
2018-02-25T05:02:42.049Z,3.00
2018-02-25T05:05:11.055Z,5.60
2018-02-25T05:07:40.861Z,6.78
2018-02-25T05:10:10.476Z,5.72
2018-02-25T05:12:39.355Z,6.22
2018-02-25T05:15:08.946Z,26.42
2018-02-25T05:17:38.826Z,79.57
2018-02-25T05:20:08.473Z,50.25
2018-02-25T05:22:37.495Z,13.93
2018-02-25T05:25:07.350Z,9.25
2018-02-25T05:27:36.198Z,9.00
2018-02-25T05:30:05.277Z,7.85
2018-02-25T05:32:34.246Z,8.68
2018-02-25T05:35:03.252Z,7.97
2018-02-25T05:37:32.822Z,9.38
2018-02-25T05:40:01.839Z,48.10
2018-02-25T05:42:31.494Z,91.63
2018-02-25T05:45:00.391Z,51.95
2018-02-25T05:47:29.460Z,20.27
2018-02-25T05:49:58.747Z,14.70
2018-02-25T05:52:28.446Z,8.93
2018-02-25T05:54:57.292Z,4.62
2018-02-25T05:57:26.184Z,3.10
2018-02-25T05:59:55.024Z,3.17
2018-02-25T06:02:24.021Z,4.43
2018-02-25T06:04:53.616Z,4.20
2018-02-25T06:07:22.733Z,7.05
2018-02-25T06:09:52.573Z,119.40
2018-02-25T06:12:22.639Z,109.30
2018-02-25T06:14:51.493Z,25.90
2018-02-25T06:17:21.183Z,19.37
2018-02-25T06:19:50.875Z,20.37
2018-02-25T06:22:19.793Z,12.65
2018-02-25T06:24:48.841Z,17.00
2018-02-25T06:27:17.817Z,21.10
2018-02-25T06:29:46.775Z,18.98
2018-02-25T06:32:16.505Z,14.98
2018-02-25T06:34:46.247Z,14.70
2018-02-25T06:37:15.385Z,9.65
2018-02-25T06:39:44.232Z,7.28
2018-02-25T06:42:13.141Z,6.60
2018-02-25T06:44:42.753Z,5.75
2018-02-25T06:47:11.638Z,4.95
2018-02-25T06:49:40.813Z,5.87
2018-02-25T06:52:10.506Z,3.78
2018-02-25T06:54:40.457Z,4.12
2018-02-25T06:57:10.270Z,3.17
2018-02-25T06:59:39.888Z,12.25
2018-02-25T07:02:08.764Z,5.05
2018-02-25T07:04:38.444Z,8.88
2018-02-25T07:07:07.302Z,9.30
2018-02-25T07:09:36.126Z,13.82
2018-02-25T07:12:06.032Z,8.23
2018-02-25T07:14:36.048Z,6.65
2018-02-25T07:17:05.672Z,3.15
2018-02-25T07:19:35.435Z,4.57
2018-02-25T07:22:04.473Z,3.20
2018-02-25T07:24:33.596Z,3.78
2018-02-25T07:27:03.448Z,4.62
2018-02-25T07:29:32.387Z,3.85
2018-02-25T07:32:01.935Z,2.00
2018-02-25T07:34:30.832Z,2.60
2018-02-25T07:36:59.713Z,2.12
2018-02-25T07:39:28.726Z,1.50
2018-02-25T07:41:57.611Z,2.05
2018-02-25T07:44:26.463Z,3.12
2018-02-25T07:46:56.072Z,3.00
2018-02-25T07:49:25.081Z,2.97
2018-02-25T07:51:53.936Z,2.55
2018-02-25T07:54:24.227Z,2.30
2018-02-25T07:56:53.987Z,2.97
2018-02-25T07:59:23.604Z,4.43
2018-02-25T08:01:52.933Z,6.15
2018-02-25T08:04:21.797Z,2.60
2018-02-25T08:06:50.692Z,11.88
2018-02-25T08:09:19.772Z,4.00
2018-02-25T08:11:49.436Z,2.30
2018-02-25T08:14:18.778Z,3.45
2018-02-25T08:16:47.792Z,2.85
2018-02-25T08:19:16.678Z,4.22
2018-02-25T08:21:45.596Z,9.60
2018-02-25T08:24:14.448Z,5.32
2018-02-25T08:26:43.541Z,3.87
2018-02-25T08:29:12.541Z,3.62
2018-02-25T08:31:41.496Z,3.58
2018-02-25T08:34:10.735Z,3.58
2018-02-25T08:36:39.875Z,3.92
2018-02-25T08:39:08.808Z,3.30
2018-02-25T08:41:38.374Z,3.00
2018-02-25T08:44:08.451Z,2.92
2018-02-25T08:46:37.414Z,2.33
2018-02-25T08:49:07.340Z,2.75
2018-02-25T08:51:36.906Z,2.60
2018-02-25T08:54:05.708Z,3.10
2018-02-25T08:56:34.617Z,2.10
2018-02-25T08:59:03.624Z,2.53
2018-02-25T09:01:33.266Z,4.30
2018-02-25T09:04:02.109Z,4.70
2018-02-25T09:06:31.841Z,3.62
2018-02-25T09:09:00.732Z,2.58
2018-02-25T09:11:29.736Z,2.83
2018-02-25T09:13:59.356Z,1.87
2018-02-25T09:16:28.425Z,6.93
2018-02-25T09:18:57.257Z,2.23
2018-02-25T09:21:26.144Z,9.10
2018-02-25T09:23:55.033Z,11.65
2018-02-25T09:26:24.220Z,5.30
2018-02-25T09:28:53.177Z,26.13
2018-02-25T09:31:23.001Z,3.90
2018-02-25T09:33:51.766Z,2.25
2018-02-25T09:36:20.729Z,12.55
2018-02-25T09:38:49.643Z,2.85
2018-02-25T09:41:19.810Z,2.47
2018-02-25T09:43:49.144Z,1.92
2018-02-25T09:46:18.181Z,2.05
2018-02-25T09:48:47.793Z,2.08
2018-02-25T09:51:16.901Z,4.25
2018-02-25T09:53:45.851Z,4.25
2018-02-25T09:56:15.016Z,2.87
2018-02-25T09:58:43.901Z,4.18
2018-02-25T10:01:12.838Z,18.65
2018-02-25T10:03:42.389Z,18.30
2018-02-25T10:06:12.107Z,11.85
2018-02-25T10:08:41.029Z,12.80
2018-02-25T10:11:10.007Z,45.88
2018-02-25T10:13:39.668Z,46.72
2018-02-25T10:16:09.068Z,20.35
2018-02-25T10:18:37.900Z,23.62
2018-02-25T10:21:06.766Z,25.90
2018-02-25T10:23:35.841Z,27.37
2018-02-25T10:26:05.452Z,13.27
2018-02-25T10:28:34.361Z,15.38
2018-02-25T10:31:03.426Z,14.85
2018-02-25T10:33:32.321Z,13.10
2018-02-25T10:36:01.415Z,13.15
2018-02-25T10:38:31.039Z,18.00
2018-02-25T10:41:00.865Z,25.02
2018-02-25T10:43:30.674Z,19.08
2018-02-25T10:45:59.487Z,46.28
2018-02-25T10:48:28.548Z,21.52
2018-02-25T10:50:57.664Z,14.23
2018-02-25T10:53:26.690Z,13.85
2018-02-25T10:55:55.633Z,9.73
2018-02-25T10:58:24.495Z,10.57
2018-02-25T11:01:00.939Z,8.57
2018-02-25T11:03:29.874Z,9.45
2018-02-25T11:05:58.792Z,11.88
2018-02-25T11:08:27.683Z,17.83
2018-02-25T11:10:56.854Z,11.70
2018-02-25T11:13:25.721Z,14.07
2018-02-25T11:15:54.602Z,16.77
2018-02-25T11:18:23.472Z,9.00
2018-02-25T11:20:52.358Z,13.03
2018-02-25T11:23:22.028Z,4.97
2018-02-25T11:25:51.200Z,26.07
2018-02-25T11:28:21.912Z,7.93
2018-02-25T11:30:50.780Z,9.63
2018-02-25T11:33:19.957Z,17.17
2018-02-25T11:35:49.169Z,8.80
2018-02-25T11:38:18.107Z,9.40
2018-02-25T11:40:47.028Z,12.57
2018-02-25T11:43:15.945Z,15.53
2018-02-25T11:45:44.830Z,13.87
2018-02-25T11:48:14.449Z,8.53
2018-02-25T11:50:43.288Z,11.83
2018-02-25T11:53:13.154Z,9.43
2018-02-25T11:55:42.206Z,14.37
2018-02-25T11:58:12.025Z,12.53
2018-02-25T12:00:41.041Z,9.97
2018-02-25T12:03:09.905Z,9.60
2018-02-25T12:05:39.039Z,10.87
2018-02-25T12:08:07.974Z,17.70
2018-02-25T12:10:37.604Z,11.10
2018-02-25T12:13:06.746Z,15.67
2018-02-25T12:15:35.593Z,11.30
2018-02-25T12:18:04.489Z,8.97
2018-02-25T12:20:34.191Z,14.40
2018-02-25T12:23:03.117Z,8.80
2018-02-25T12:25:32.202Z,10.87
2018-02-25T12:28:01.913Z,9.97
2018-02-25T12:30:31.784Z,6.53
2018-02-25T12:33:00.656Z,10.87
2018-02-25T12:35:29.516Z,10.33
2018-02-25T12:37:59.581Z,11.57
2018-02-25T12:40:29.241Z,7.90
2018-02-25T12:42:58.493Z,8.23
2018-02-25T12:45:28.433Z,7.83
2018-02-25T13:00:58.213Z,7.90
2018-02-25T13:03:27.843Z,11.40
2018-02-25T13:05:57.096Z,6.72
2018-02-25T13:08:27.030Z,9.27
2018-02-25T13:10:55.922Z,8.50
2018-02-25T13:13:25.843Z,8.93
2018-02-25T13:15:54.708Z,6.90
2018-02-25T13:18:24.022Z,7.20
2018-02-25T13:20:53.218Z,6.20
2018-02-25T13:23:23.062Z,5.55
2018-02-25T13:25:51.881Z,9.60
2018-02-25T13:28:21.731Z,25.40
2018-02-25T13:30:50.653Z,12.57
2018-02-25T13:33:19.562Z,12.63
2018-02-25T13:35:48.337Z,17.60
2018-02-25T13:38:17.226Z,13.87
2018-02-25T13:40:46.245Z,8.43
2018-02-25T13:43:15.408Z,7.90
2018-02-25T13:45:45.001Z,10.27
2018-02-25T13:48:14.757Z,9.17
2018-02-25T13:50:44.593Z,7.77
2018-02-25T13:53:13.455Z,7.50
2018-02-25T13:55:42.419Z,8.00
2018-02-25T13:58:12.055Z,15.93
2018-02-25T14:00:40.949Z,11.07
2018-02-25T14:03:10.965Z,9.70
2018-02-25T14:05:39.749Z,20.23
2018-02-25T14:08:09.406Z,16.98
2018-02-25T14:10:39.040Z,17.40
2018-02-25T14:13:07.933Z,21.58
2018-02-25T14:15:37.701Z,15.73
2018-02-25T14:18:07.439Z,20.37
2018-02-25T14:20:37.111Z,15.50
2018-02-25T14:23:07.205Z,14.63
2018-02-25T14:25:36.267Z,17.10
2018-02-25T14:28:05.924Z,17.00
2018-02-25T14:30:35.152Z,19.10
2018-02-25T14:33:04.130Z,10.73
2018-02-25T14:35:33.003Z,30.25
2018-02-25T14:38:01.840Z,12.88
2018-02-25T14:40:30.890Z,20.73
2018-02-25T14:42:59.745Z,17.80
2018-02-25T14:45:28.616Z,14.48
2018-02-25T14:47:57.552Z,15.10
2018-02-25T14:50:26.783Z,11.50
2018-02-25T14:52:55.678Z,13.82
2018-02-25T14:55:24.594Z,15.98
2018-02-25T14:57:54.241Z,12.37
2018-02-25T15:00:23.053Z,8.45
2018-02-25T15:02:51.957Z,12.90
2018-02-25T15:05:20.778Z,11.48
2018-02-25T15:07:49.660Z,14.63
2018-02-25T15:10:19.369Z,14.25
2018-02-25T15:12:49.469Z,18.25
2018-02-25T15:15:19.044Z,14.30
2018-02-25T15:17:48.688Z,10.45
2018-02-25T15:20:17.586Z,12.65
2018-02-25T15:22:46.605Z,15.05
2018-02-25T15:25:16.388Z,20.45
2018-02-25T15:27:46.085Z,14.65
2018-02-25T15:30:15.931Z,19.35
2018-02-25T15:32:44.817Z,13.57
2018-02-25T15:35:14.499Z,16.75
2018-02-25T15:37:43.389Z,15.02
2018-02-25T15:40:12.274Z,18.52
2018-02-25T15:42:41.418Z,16.67
2018-02-25T15:45:10.248Z,21.92
2018-02-25T15:47:39.935Z,21.33
2018-02-25T15:50:09.624Z,28.65
2018-02-25T15:52:38.803Z,21.00
2018-02-25T15:55:07.979Z,25.15
2018-02-25T15:57:36.778Z,21.15
2018-02-25T16:00:06.418Z,21.85
2018-02-25T16:02:35.245Z,18.17
2018-02-25T16:05:04.942Z,23.60
2018-02-25T16:07:33.838Z,18.98
2018-02-25T16:10:02.713Z,20.58
2018-02-25T16:12:31.560Z,22.05
2018-02-25T16:15:01.186Z,19.15
2018-02-25T16:17:30.377Z,29.52
2018-02-25T16:20:00.215Z,21.87
2018-02-25T16:22:29.067Z,24.02
2018-02-25T16:24:59.165Z,30.83
2018-02-25T16:27:28.329Z,27.58
2018-02-25T16:29:57.180Z,26.50
2018-02-25T16:32:26.805Z,20.12
2018-02-25T16:34:55.709Z,22.83
2018-02-25T16:37:24.775Z,25.45
2018-02-25T16:39:54.439Z,24.15
2018-02-25T16:42:24.129Z,27.13
2018-02-25T16:44:52.900Z,24.00
2018-02-25T16:47:21.770Z,27.45
2018-02-25T16:49:50.794Z,24.83
2018-02-25T16:52:19.751Z,27.58
2018-02-25T16:54:48.835Z,28.52
2018-02-25T16:57:18.698Z,31.17
2018-02-25T16:59:47.584Z,22.10
2018-02-25T17:02:16.668Z,24.30
2018-02-25T17:04:45.544Z,27.27
2018-02-25T17:07:14.443Z,25.73
2018-02-25T17:09:43.663Z,26.12
2018-02-25T17:12:13.316Z,29.27
2018-02-25T17:14:42.468Z,32.22
2018-02-25T17:17:11.714Z,26.87
2018-02-25T17:19:40.631Z,24.63
2018-02-25T17:22:09.572Z,24.58
2018-02-25T17:27:13.605Z,21.55
2018-02-25T17:29:42.658Z,28.83
2018-02-25T17:32:11.929Z,19.85
2018-02-25T17:34:41.827Z,24.48
2018-02-25T17:37:10.928Z,24.15
2018-02-25T17:39:40.100Z,29.65
2018-02-25T17:42:10.292Z,24.67
2018-02-25T17:44:39.822Z,21.73
2018-02-25T17:47:09.835Z,22.13
2018-02-25T17:49:38.958Z,20.80
2018-02-25T17:52:08.301Z,21.87
2018-02-25T17:54:37.359Z,17.15
2018-02-25T17:57:07.318Z,15.50
2018-02-25T17:59:36.149Z,14.63
2018-02-25T18:02:05.096Z,16.02
2018-02-25T18:04:33.976Z,16.55
2018-02-25T18:07:02.875Z,15.65
2018-02-25T18:09:32.502Z,18.50
2018-02-25T18:12:01.399Z,20.75
2018-02-25T18:14:30.451Z,18.40
2018-02-25T18:16:59.957Z,15.23
2018-02-25T18:19:28.912Z,18.40
2018-02-25T18:21:57.836Z,14.27
2018-02-25T18:24:26.704Z,14.57
2018-02-25T18:26:55.619Z,13.52
2018-02-25T18:29:24.659Z,11.55
2018-02-25T18:31:53.458Z,14.68
2018-02-25T18:34:22.379Z,17.42
2018-02-25T18:36:52.208Z,14.77
2018-02-25T18:39:21.386Z,14.82
2018-02-25T18:41:50.449Z,22.10
2018-02-25T18:44:20.057Z,21.98
2018-02-25T18:46:49.260Z,16.58
2018-02-25T18:49:19.401Z,16.95
2018-02-25T18:51:48.676Z,20.45
2018-02-25T18:54:18.224Z,19.20
2018-02-25T18:56:47.591Z,22.17
2018-02-25T18:59:16.912Z,20.77
2018-02-25T19:01:45.957Z,16.15
2018-02-25T19:04:14.912Z,15.85
2018-02-25T19:06:48.401Z,17.85
2018-02-25T19:09:19.346Z,17.30
2018-02-25T19:11:49.275Z,24.23
2018-02-25T19:14:18.935Z,17.83
2018-02-25T19:16:47.840Z,19.12
2018-02-25T19:19:16.879Z,16.83
2018-02-25T19:21:45.978Z,22.27
2018-02-25T19:24:15.171Z,15.63
2018-02-25T19:26:44.316Z,15.50
2018-02-25T19:29:13.984Z,18.17
2018-02-25T19:31:43.073Z,21.67
2018-02-25T19:34:12.681Z,18.52
2018-02-25T19:36:58.472Z,14.25
2018-02-25T19:39:33.143Z,9.02
2018-02-25T19:42:02.714Z,9.93
2018-02-25T19:44:32.083Z,10.75
2018-02-25T19:47:02.101Z,9.90
2018-02-25T19:49:31.453Z,10.88
2018-02-25T19:52:00.924Z,9.77
2018-02-25T19:54:30.480Z,9.43
2018-02-25T19:57:00.051Z,13.13
2018-02-25T19:59:29.821Z,13.15
2018-02-25T20:01:59.159Z,13.98
2018-02-25T20:04:29.393Z,13.93
2018-02-25T20:06:58.797Z,14.23
2018-02-25T20:09:28.260Z,10.68
2018-02-25T20:11:57.527Z,20.83
2018-02-25T20:14:26.641Z,13.85
2018-02-25T20:16:55.630Z,12.88
2018-02-25T20:19:24.811Z,9.80
2018-02-25T20:21:53.846Z,11.52
2018-02-25T20:24:22.609Z,10.00
2018-02-25T20:26:51.531Z,12.55
2018-02-25T20:29:21.122Z,18.33
2018-02-25T20:31:50.216Z,10.88
2018-02-25T20:34:18.952Z,11.38
2018-02-25T20:36:47.864Z,11.40
2018-02-25T20:39:17.491Z,11.12
2018-02-25T20:41:46.292Z,8.25
2018-02-25T20:44:15.336Z,8.70
2018-02-25T20:46:44.161Z,9.93
2018-02-25T20:49:13.163Z,10.00
2018-02-25T20:51:43.406Z,14.20
2018-02-25T20:54:12.719Z,12.30
2018-02-25T20:56:41.707Z,11.35
2018-02-25T20:59:10.682Z,10.93
2018-02-25T21:01:40.466Z,8.13
2018-02-25T21:04:09.299Z,7.57
2018-02-25T21:06:38.514Z,11.77
2018-02-25T21:09:07.402Z,10.07
2018-02-25T21:11:36.217Z,11.52
2018-02-25T21:14:05.049Z,9.10
2018-02-25T21:16:34.620Z,13.18
2018-02-25T21:19:03.446Z,10.90
2018-02-25T21:21:32.162Z,19.48
2018-02-25T21:24:01.291Z,12.82
2018-02-25T21:26:30.183Z,15.45
2018-02-25T21:28:58.970Z,15.70
2018-02-25T21:31:28.035Z,20.88
2018-02-25T21:33:58.105Z,18.65
2018-02-25T21:36:26.983Z,20.33
2018-02-25T21:38:55.838Z,14.05
2018-02-25T21:41:24.991Z,13.35
2018-02-25T21:43:54.420Z,15.27
2018-02-25T21:46:23.956Z,14.85
2018-02-25T21:48:53.029Z,11.95
2018-02-25T21:51:21.993Z,14.07
2018-02-25T21:53:50.802Z,11.35
2018-02-25T21:56:25.424Z,12.45
2018-02-25T21:58:59.823Z,14.00
2018-02-25T22:01:34.278Z,14.18
2018-02-25T22:04:03.110Z,11.80
2018-02-25T22:06:31.855Z,12.93
2018-02-25T22:09:00.703Z,12.32
2018-02-25T22:11:29.531Z,11.48
2018-02-25T22:13:58.413Z,11.73
2018-02-25T22:16:27.910Z,11.70
2018-02-25T22:18:57.792Z,14.75
2018-02-25T22:21:26.636Z,11.50
2018-02-25T22:23:55.488Z,12.13
2018-02-25T22:26:25.301Z,12.50
2018-02-25T22:28:54.286Z,14.93
2018-02-25T22:31:23.566Z,12.05
2018-02-25T22:33:52.589Z,12.15
2018-02-25T22:36:21.370Z,15.00
2018-02-25T22:38:50.177Z,14.80
2018-02-25T22:41:19.027Z,12.35
2018-02-25T22:43:48.660Z,13.68
2018-02-25T22:46:18.677Z,11.98
2018-02-25T22:48:48.374Z,11.80
2018-02-25T22:51:18.013Z,10.98
2018-02-25T22:53:54.296Z,13.57
2018-02-25T22:56:23.665Z,16.15
2018-02-25T22:58:53.426Z,13.88
2018-02-25T23:01:22.411Z,11.88
2018-02-25T23:03:51.261Z,14.13
2018-02-25T23:06:21.109Z,11.25
2018-02-25T23:08:50.791Z,15.98
2018-02-25T23:11:20.432Z,11.12
2018-02-25T23:13:49.198Z,13.60
2018-02-25T23:16:18.164Z,13.73
2018-02-25T23:18:47.101Z,18.27
2018-02-25T23:21:16.044Z,13.70
2018-02-25T23:23:44.988Z,17.67
2018-02-25T23:26:13.813Z,15.88
2018-02-25T23:28:42.793Z,19.70
2018-02-25T23:31:11.836Z,16.30
2018-02-25T23:33:41.637Z,18.05
2018-02-25T23:36:10.648Z,15.93
2018-02-25T23:38:39.617Z,18.23
2018-02-25T23:41:08.640Z,20.10
2018-02-25T23:43:37.825Z,15.90
2018-02-25T23:46:06.770Z,12.10
2018-02-25T23:48:36.333Z,12.65
2018-02-25T23:51:05.192Z,20.88
2018-02-25T23:53:34.130Z,16.42
2018-02-25T23:56:03.018Z,16.87
2018-02-25T23:58:32.901Z,16.80
